This is the latest recevied weather packets stored in our database for station/object K4HOG. If no packets are shown the sender has not sent any weather packets the latest 10 day(s).
| Time | Temp. | Humidity | Pressure | Rain* | Wind** | Luminosity | Snow |
|---|---|---|---|---|---|---|---|
| 1777234844 | 31.11° C | 53% | 1009.8 hPa | 0 mm | - | 634 W/m² | - |
| 1777234540 | 31.11° C | 53% | 1009.6 hPa | 0 mm | - | 661 W/m² | - |
| 1777234240 | 31.11° C | 52% | 1009.8 hPa | 0 mm | - | 677 W/m² | - |
| 1777233937 | 30° C | 54% | 1009.7 hPa | 0 mm | - | 668 W/m² | - |
| 1777233633 | 30° C | 55% | 1009.9 hPa | 0 mm | - | 759 W/m² | - |
| 1777233332 | 28.89° C | 57% | 1010 hPa | 0 mm | - | 822 W/m² | - |
| 1777233028 | 29.44° C | 56% | 1009.8 hPa | 0 mm | - | 228 W/m² | - |
| 1777232726 | 30° C | 54% | 1009.9 hPa | 0 mm | - | 361 W/m² | - |
| 1777232424 | 30° C | 53% | 1009.9 hPa | 0 mm | - | 260 W/m² | - |
| 1777232121 | 31.11° C | 49% | 1010.1 hPa | 0 mm | - | 259 W/m² | - |
| 1777231818 | 31.67° C | 46% | 1009.9 hPa | 0 mm | - | 854 W/m² | - |
| 1777231514 | 31.67° C | 45% | 1009.9 hPa | 0 mm | - | 794 W/m² | - |
| 1777231210 | 31.67° C | 45% | 1010 hPa | 0 mm | - | 798 W/m² | - |
| 1777230906 | 31.67° C | 45% | 1010.3 hPa | 0 mm | - | 815 W/m² | - |
| 1777230602 | 31.11° C | 45% | 1010.2 hPa | 0 mm | - | 795 W/m² | - |
| 1777230298 | 32.22° C | 43% | 1010.2 hPa | 0 mm | - | 809 W/m² | - |
| 1777229995 | 31.11° C | 45% | 1010.2 hPa | 0 mm | - | 809 W/m² | - |
| 1777229691 | 31.11° C | 45% | 1010.3 hPa | 0 mm | - | 811 W/m² | - |
| 1777229388 | 30.56° C | 46% | 1010.2 hPa | 0 mm | - | 827 W/m² | - |
| 1777229085 | 31.11° C | 46% | 1010.5 hPa | 0 mm | - | 832 W/m² | - |
| 1777228783 | 31.11° C | 46% | 1010.4 hPa | 0 mm | - | 845 W/m² | - |
| 1777228477 | 30.56° C | 47% | 1010.5 hPa | 0 mm | - | 877 W/m² | - |
| 1777228173 | 31.11° C | 47% | 1010.7 hPa | 0 mm | - | 860 W/m² | - |
| 1777227872 | 31.67° C | 45% | 1010.7 hPa | 0 mm | - | 857 W/m² | - |
| 1777227569 | 30.56° C | 47% | 1010.7 hPa | 0 mm | - | 859 W/m² | - |
* Rain latest hour (hover to see other rain measurements)
** Current wind speed in m/s (hover to see current wind gust speed)